AFR22XM EKCH-LHBP
Flight info
| Callsign | AFR22XM |
|---|---|
| Flight time | 1h 31m |
| Altitude | 37000 |
| Route | SIMEG Z493 BILRA DCT DESEN DCT VALPI DCT NIT M748 ARFOX |
| Aircraft | A320/M-DE3FGHILORWXY/LB1 |
Departure
| Time | 2026-05-04 17:29 |
|---|---|
| Airport | Copenhagen Kastrup Airport (EKCH) |
Arrival
| Time | 2026-05-04 19:01 |
|---|---|
| Airport | Budapest Liszt Ferenc International Airport (LHBP) |
| Time | Latitude | Longitude | Altitude | Speed | Heading |
|---|---|---|---|---|---|
| 2026-05-04 16:32 | 55.62496 | 12.64910 | 24 ft | 0 kts | 89° |
| 2026-05-04 17:18 | 55.62496 | 12.64897 | 24 ft | 2 kts | 89° |
| 2026-05-04 17:19 | 55.62495 | 12.64839 | 24 ft | 2 kts | 88° |
| 2026-05-04 17:19 | 55.62495 | 12.64779 | 24 ft | 2 kts | 140° |
| 2026-05-04 17:20 | 55.62520 | 12.64771 | 24 ft | 1 kts | 179° |
| 2026-05-04 17:20 | 55.62521 | 12.64771 | 24 ft | 0 kts | 179° |
| 2026-05-04 17:22 | 55.62512 | 12.64771 | 26 ft | 5 kts | 179° |
| 2026-05-04 17:22 | 55.62465 | 12.64774 | 24 ft | 7 kts | 176° |
| 2026-05-04 17:23 | 55.62327 | 12.64708 | 24 ft | 11 kts | 244° |
| 2026-05-04 17:23 | 55.62303 | 12.64614 | 24 ft | 0 kts | 248° |
| 2026-05-04 17:24 | 55.62229 | 12.64368 | 21 ft | 13 kts | 216° |
| 2026-05-04 17:25 | 55.62151 | 12.64302 | 25 ft | 11 kts | 206° |
| 2026-05-04 17:25 | 55.62036 | 12.64204 | 24 ft | 7 kts | 206° |
| 2026-05-04 17:26 | 55.61957 | 12.64138 | 25 ft | 7 kts | 205° |
| 2026-05-04 17:26 | 55.61775 | 12.64078 | 24 ft | 7 kts | 176° |
| 2026-05-04 17:27 | 55.61755 | 12.64080 | 24 ft | 0 kts | 176° |
| 2026-05-04 17:27 | 55.61689 | 12.64088 | 30 ft | 7 kts | 176° |
| 2026-05-04 17:28 | 55.61599 | 12.64028 | 27 ft | 8 kts | 218° |
| 2026-05-04 17:29 | 55.60114 | 12.61727 | 54 ft | 170 kts | 223° |
| 2026-05-04 17:29 | 55.57338 | 12.57516 | 1716 ft | 200 kts | 223° |
| 2026-05-04 17:30 | 55.53060 | 12.53696 | 3300 ft | 256 kts | 200° |
| 2026-05-04 17:31 | 55.49605 | 12.52134 | 5168 ft | 265 kts | 183° |
| 2026-05-04 17:31 | 55.45431 | 12.58304 | 7750 ft | 296 kts | 114° |
| 2026-05-04 17:32 | 55.43957 | 12.65172 | 9402 ft | 303 kts | 114° |
| 2026-05-04 17:33 | 55.41553 | 12.76222 | 10805 ft | 348 kts | 114° |
| 2026-05-04 17:33 | 55.40669 | 12.80227 | 11470 ft | 354 kts | 114° |
| 2026-05-04 17:34 | 55.37947 | 12.92558 | 13631 ft | 367 kts | 114° |
| 2026-05-04 17:34 | 55.37016 | 12.96749 | 14265 ft | 370 kts | 114° |
| 2026-05-04 17:35 | 55.34071 | 13.09497 | 16120 ft | 378 kts | 124° |
| 2026-05-04 17:35 | 55.30912 | 13.16906 | 17337 ft | 382 kts | 132° |
| 2026-05-04 17:35 | 55.29262 | 13.20594 | 17943 ft | 386 kts | 132° |
| 2026-05-04 17:36 | 55.27594 | 13.24306 | 18493 ft | 389 kts | 132° |
| 2026-05-04 17:36 | 55.25910 | 13.28052 | 19019 ft | 393 kts | 132° |
| 2026-05-04 17:36 | 55.24218 | 13.31818 | 19547 ft | 396 kts | 132° |
| 2026-05-04 17:36 | 55.22508 | 13.35627 | 20084 ft | 399 kts | 132° |
| 2026-05-04 17:37 | 55.20785 | 13.39460 | 20609 ft | 402 kts | 132° |
| 2026-05-04 17:37 | 55.19048 | 13.43320 | 21141 ft | 405 kts | 132° |
| 2026-05-04 17:37 | 55.17297 | 13.47205 | 21666 ft | 408 kts | 132° |
| 2026-05-04 17:37 | 55.15554 | 13.51071 | 22179 ft | 412 kts | 132° |
| 2026-05-04 17:38 | 55.13771 | 13.55016 | 22700 ft | 415 kts | 132° |
| 2026-05-04 17:38 | 55.11972 | 13.58983 | 23198 ft | 418 kts | 133° |
| 2026-05-04 17:38 | 55.10158 | 13.62977 | 23666 ft | 422 kts | 133° |
| 2026-05-04 17:38 | 55.08325 | 13.67002 | 24060 ft | 425 kts | 133° |
| 2026-05-04 17:39 | 55.04618 | 13.75131 | 24828 ft | 431 kts | 133° |
| 2026-05-04 17:39 | 55.02746 | 13.79234 | 25199 ft | 434 kts | 133° |
| 2026-05-04 17:39 | 55.00851 | 13.83379 | 25568 ft | 437 kts | 133° |
| 2026-05-04 17:40 | 54.98946 | 13.87540 | 25927 ft | 441 kts | 134° |
| 2026-05-04 17:40 | 54.97031 | 13.91716 | 26270 ft | 443 kts | 134° |
| 2026-05-04 17:40 | 54.95094 | 13.95923 | 26620 ft | 446 kts | 134° |
| 2026-05-04 17:40 | 54.93140 | 14.00149 | 26956 ft | 449 kts | 134° |
| 2026-05-04 17:41 | 54.91177 | 14.04390 | 27283 ft | 452 kts | 134° |
| 2026-05-04 17:41 | 54.89197 | 14.08658 | 27610 ft | 455 kts | 134° |
| 2026-05-04 17:41 | 54.87209 | 14.12948 | 27953 ft | 458 kts | 134° |
| 2026-05-04 17:41 | 54.85205 | 14.17273 | 28273 ft | 461 kts | 134° |
| 2026-05-04 17:42 | 54.83191 | 14.21607 | 28585 ft | 463 kts | 134° |
| 2026-05-04 17:42 | 54.81158 | 14.25971 | 28901 ft | 466 kts | 134° |
| 2026-05-04 17:42 | 54.79024 | 14.30178 | 29200 ft | 463 kts | 142° |
| 2026-05-04 17:42 | 54.76593 | 14.33774 | 29495 ft | 458 kts | 151° |
| 2026-05-04 17:43 | 54.73912 | 14.36656 | 29786 ft | 452 kts | 160° |
| 2026-05-04 17:43 | 54.71068 | 14.38946 | 30044 ft | 451 kts | 163° |
| 2026-05-04 17:43 | 54.68199 | 14.41188 | 30293 ft | 453 kts | 162° |
| 2026-05-04 17:43 | 54.65323 | 14.43440 | 30545 ft | 455 kts | 162° |
| 2026-05-04 17:44 | 54.62476 | 14.45673 | 30791 ft | 456 kts | 162° |
| 2026-05-04 17:44 | 54.59586 | 14.47942 | 31031 ft | 457 kts | 162° |
| 2026-05-04 17:44 | 54.56681 | 14.50223 | 31275 ft | 459 kts | 162° |
| 2026-05-04 17:44 | 54.53783 | 14.52496 | 31599 ft | 457 kts | 162° |
| 2026-05-04 17:45 | 54.50889 | 14.54760 | 31952 ft | 456 kts | 162° |
| 2026-05-04 17:45 | 54.48005 | 14.57007 | 32293 ft | 454 kts | 162° |
| 2026-05-04 17:45 | 54.45133 | 14.59241 | 32639 ft | 453 kts | 162° |
| 2026-05-04 17:45 | 54.42263 | 14.61466 | 32974 ft | 452 kts | 162° |
| 2026-05-04 17:46 | 54.39400 | 14.63678 | 33302 ft | 450 kts | 162° |
| 2026-05-04 17:46 | 54.36547 | 14.65878 | 33634 ft | 450 kts | 162° |
| 2026-05-04 17:46 | 54.33697 | 14.68078 | 33947 ft | 449 kts | 162° |
| 2026-05-04 17:46 | 54.30850 | 14.70280 | 34220 ft | 448 kts | 162° |
| 2026-05-04 17:47 | 54.28009 | 14.72472 | 34465 ft | 448 kts | 162° |
| 2026-05-04 17:47 | 54.25163 | 14.74660 | 34701 ft | 448 kts | 162° |
| 2026-05-04 17:47 | 54.22316 | 14.76844 | 34936 ft | 448 kts | 162° |
| 2026-05-04 17:47 | 54.19478 | 14.79019 | 35158 ft | 448 kts | 162° |
| 2026-05-04 17:48 | 54.16632 | 14.81199 | 35367 ft | 448 kts | 162° |
| 2026-05-04 17:48 | 54.13783 | 14.83372 | 35588 ft | 447 kts | 161° |
| 2026-05-04 17:48 | 54.10978 | 14.85508 | 35797 ft | 447 kts | 161° |
| 2026-05-04 17:48 | 54.08138 | 14.87671 | 36004 ft | 447 kts | 161° |
| 2026-05-04 17:49 | 54.05297 | 14.89830 | 36208 ft | 447 kts | 161° |
| 2026-05-04 17:49 | 54.02453 | 14.91985 | 36395 ft | 447 kts | 161° |
| 2026-05-04 17:49 | 53.99610 | 14.94134 | 36586 ft | 447 kts | 161° |
| 2026-05-04 17:49 | 53.96772 | 14.96280 | 36778 ft | 447 kts | 161° |
| 2026-05-04 17:50 | 53.93929 | 14.98435 | 36942 ft | 447 kts | 161° |
| 2026-05-04 17:50 | 53.91100 | 15.00579 | 36976 ft | 445 kts | 161° |
| 2026-05-04 17:50 | 53.85443 | 15.04848 | 36972 ft | 444 kts | 161° |
| 2026-05-04 17:51 | 53.79783 | 15.09099 | 36971 ft | 444 kts | 161° |
| 2026-05-04 17:51 | 53.74172 | 15.13302 | 36972 ft | 445 kts | 161° |
| 2026-05-04 17:52 | 53.68508 | 15.17526 | 36971 ft | 445 kts | 161° |
| 2026-05-04 17:52 | 53.62841 | 15.21739 | 36974 ft | 445 kts | 161° |
| 2026-05-04 17:53 | 53.57166 | 15.25946 | 36969 ft | 446 kts | 161° |
| 2026-05-04 17:53 | 53.51490 | 15.30154 | 36976 ft | 446 kts | 161° |
| 2026-05-04 17:54 | 53.45802 | 15.34359 | 36969 ft | 446 kts | 161° |
| 2026-05-04 17:54 | 53.40119 | 15.38540 | 36975 ft | 446 kts | 161° |
| 2026-05-04 17:55 | 53.34422 | 15.42712 | 36968 ft | 446 kts | 161° |
| 2026-05-04 17:55 | 53.29694 | 15.46174 | 36967 ft | 447 kts | 161° |
| 2026-05-04 17:56 | 53.24004 | 15.50332 | 36962 ft | 446 kts | 161° |
| 2026-05-04 17:56 | 53.18300 | 15.54479 | 36982 ft | 447 kts | 161° |
| 2026-05-04 17:57 | 53.12605 | 15.58600 | 36967 ft | 447 kts | 161° |
| 2026-05-04 17:57 | 53.06902 | 15.62728 | 36961 ft | 447 kts | 161° |
| 2026-05-04 17:58 | 53.01195 | 15.66838 | 36960 ft | 447 kts | 161° |
| 2026-05-04 17:58 | 52.95496 | 15.70939 | 36957 ft | 446 kts | 162° |
| 2026-05-04 17:59 | 52.89826 | 15.75002 | 36958 ft | 446 kts | 162° |
| 2026-05-04 18:00 | 52.81275 | 15.81121 | 36956 ft | 446 kts | 161° |
| 2026-05-04 18:00 | 52.75574 | 15.85187 | 36955 ft | 446 kts | 162° |
| 2026-05-04 18:01 | 52.69874 | 15.89230 | 36954 ft | 446 kts | 161° |
| 2026-05-04 18:01 | 52.64175 | 15.93269 | 36957 ft | 446 kts | 161° |
| 2026-05-04 18:02 | 52.55626 | 15.99312 | 36952 ft | 446 kts | 161° |
| 2026-05-04 18:02 | 52.49927 | 16.03321 | 36953 ft | 446 kts | 161° |
| 2026-05-04 18:03 | 52.44226 | 16.07315 | 36951 ft | 446 kts | 161° |
| 2026-05-04 18:03 | 52.38520 | 16.11293 | 36953 ft | 446 kts | 161° |
| 2026-05-04 18:04 | 52.32811 | 16.15259 | 36952 ft | 446 kts | 161° |
| 2026-05-04 18:05 | 52.24257 | 16.21222 | 36949 ft | 446 kts | 161° |
| 2026-05-04 18:05 | 52.18551 | 16.25177 | 36948 ft | 446 kts | 161° |
| 2026-05-04 18:06 | 52.10016 | 16.31045 | 36950 ft | 445 kts | 161° |
| 2026-05-04 18:06 | 52.04303 | 16.34970 | 36949 ft | 446 kts | 161° |
| 2026-05-04 18:07 | 51.98596 | 16.38889 | 36950 ft | 446 kts | 161° |
| 2026-05-04 18:07 | 51.92880 | 16.42804 | 36943 ft | 446 kts | 161° |
| 2026-05-04 18:08 | 51.87162 | 16.46700 | 36934 ft | 446 kts | 161° |
| 2026-05-04 18:08 | 51.81441 | 16.50586 | 36939 ft | 446 kts | 161° |
| 2026-05-04 18:09 | 51.69984 | 16.58331 | 36940 ft | 446 kts | 161° |
| 2026-05-04 18:10 | 51.64257 | 16.62195 | 36939 ft | 446 kts | 161° |
| 2026-05-04 18:10 | 51.58534 | 16.66048 | 36931 ft | 446 kts | 161° |
| 2026-05-04 18:11 | 51.52801 | 16.69901 | 36938 ft | 446 kts | 161° |
| 2026-05-04 18:11 | 51.47076 | 16.73724 | 36947 ft | 446 kts | 161° |
| 2026-05-04 18:12 | 51.41383 | 16.77517 | 36950 ft | 446 kts | 161° |
| 2026-05-04 18:12 | 51.35659 | 16.81325 | 36945 ft | 445 kts | 161° |
| 2026-05-04 18:13 | 51.29923 | 16.85136 | 36960 ft | 445 kts | 161° |
| 2026-05-04 18:14 | 51.21330 | 16.90813 | 36959 ft | 445 kts | 161° |
| 2026-05-04 18:14 | 51.15603 | 16.94574 | 36958 ft | 445 kts | 161° |
| 2026-05-04 18:15 | 51.04158 | 17.02092 | 36956 ft | 445 kts | 161° |
| 2026-05-04 18:16 | 50.98433 | 17.05827 | 36950 ft | 445 kts | 161° |
| 2026-05-04 18:16 | 50.92743 | 17.09540 | 36949 ft | 445 kts | 161° |
| 2026-05-04 18:17 | 50.84163 | 17.15122 | 36949 ft | 444 kts | 161° |
| 2026-05-04 18:18 | 50.75582 | 17.20670 | 36949 ft | 444 kts | 161° |
| 2026-05-04 18:18 | 50.69851 | 17.24360 | 36948 ft | 444 kts | 161° |
| 2026-05-04 18:19 | 50.61272 | 17.29871 | 36950 ft | 444 kts | 161° |
| 2026-05-04 18:19 | 50.55558 | 17.33540 | 36956 ft | 444 kts | 161° |
| 2026-05-04 18:20 | 50.49839 | 17.37199 | 36957 ft | 444 kts | 161° |
| 2026-05-04 18:20 | 50.44121 | 17.40837 | 36962 ft | 444 kts | 161° |
| 2026-05-04 18:21 | 50.38394 | 17.44469 | 36962 ft | 444 kts | 161° |
| 2026-05-04 18:21 | 50.32704 | 17.48073 | 36964 ft | 444 kts | 161° |
| 2026-05-04 18:22 | 50.26960 | 17.51609 | 36962 ft | 442 kts | 166° |
| 2026-05-04 18:22 | 50.21007 | 17.53842 | 36969 ft | 440 kts | 170° |
| 2026-05-04 18:23 | 50.15028 | 17.55956 | 36965 ft | 440 kts | 170° |
| 2026-05-04 18:23 | 50.09046 | 17.58074 | 36970 ft | 441 kts | 170° |
| 2026-05-04 18:24 | 50.03071 | 17.60192 | 36970 ft | 440 kts | 170° |
| 2026-05-04 18:24 | 49.97074 | 17.62313 | 36983 ft | 443 kts | 170° |
| 2026-05-04 18:25 | 49.91068 | 17.64432 | 36986 ft | 442 kts | 170° |
| 2026-05-04 18:25 | 49.85067 | 17.66539 | 36992 ft | 442 kts | 169° |
| 2026-05-04 18:26 | 49.79065 | 17.68647 | 36994 ft | 442 kts | 170° |
| 2026-05-04 18:26 | 49.73102 | 17.70724 | 36995 ft | 442 kts | 170° |
| 2026-05-04 18:27 | 49.67101 | 17.72822 | 36995 ft | 442 kts | 169° |
| 2026-05-04 18:27 | 49.61101 | 17.74903 | 36993 ft | 442 kts | 170° |
| 2026-05-04 18:28 | 49.55148 | 17.77368 | 36992 ft | 444 kts | 164° |
| 2026-05-04 18:28 | 49.49276 | 17.80411 | 36993 ft | 445 kts | 163° |
| 2026-05-04 18:29 | 49.43465 | 17.83506 | 36990 ft | 445 kts | 163° |
| 2026-05-04 18:29 | 49.37608 | 17.86586 | 36986 ft | 445 kts | 163° |
| 2026-05-04 18:30 | 49.28802 | 17.91160 | 36995 ft | 445 kts | 163° |
| 2026-05-04 18:31 | 49.22924 | 17.94202 | 37000 ft | 445 kts | 163° |
| 2026-05-04 18:31 | 49.17049 | 17.97228 | 36998 ft | 446 kts | 163° |
| 2026-05-04 18:32 | 49.11173 | 18.00267 | 37003 ft | 446 kts | 163° |
| 2026-05-04 18:32 | 49.05323 | 18.03282 | 37007 ft | 446 kts | 163° |
| 2026-05-04 18:33 | 48.99449 | 18.06286 | 37011 ft | 446 kts | 163° |
| 2026-05-04 18:33 | 48.93562 | 18.09288 | 37014 ft | 446 kts | 163° |
| 2026-05-04 18:34 | 48.87677 | 18.12290 | 37014 ft | 446 kts | 163° |
| 2026-05-04 18:34 | 48.81795 | 18.15286 | 37021 ft | 446 kts | 163° |
| 2026-05-04 18:35 | 48.75906 | 18.18265 | 37015 ft | 446 kts | 163° |
| 2026-05-04 18:35 | 48.70059 | 18.21221 | 36863 ft | 447 kts | 163° |
| 2026-05-04 18:35 | 48.67108 | 18.22710 | 36592 ft | 446 kts | 163° |
| 2026-05-04 18:36 | 48.64167 | 18.24196 | 36329 ft | 446 kts | 163° |
| 2026-05-04 18:36 | 48.61220 | 18.25686 | 36022 ft | 445 kts | 163° |
| 2026-05-04 18:36 | 48.58290 | 18.27169 | 35467 ft | 443 kts | 163° |
| 2026-05-04 18:36 | 48.55380 | 18.28639 | 34939 ft | 440 kts | 163° |
| 2026-05-04 18:37 | 48.52480 | 18.30098 | 34403 ft | 438 kts | 163° |
| 2026-05-04 18:37 | 48.49595 | 18.31550 | 33857 ft | 436 kts | 163° |
| 2026-05-04 18:37 | 48.46730 | 18.32987 | 33304 ft | 433 kts | 163° |
| 2026-05-04 18:37 | 48.43879 | 18.34414 | 32779 ft | 430 kts | 163° |
| 2026-05-04 18:38 | 48.41051 | 18.35826 | 32258 ft | 427 kts | 163° |
| 2026-05-04 18:38 | 48.38238 | 18.37227 | 31744 ft | 424 kts | 163° |
| 2026-05-04 18:38 | 48.35446 | 18.38619 | 31251 ft | 421 kts | 163° |
| 2026-05-04 18:38 | 48.32668 | 18.40000 | 30741 ft | 419 kts | 163° |
| 2026-05-04 18:39 | 48.29912 | 18.41367 | 30248 ft | 416 kts | 163° |
| 2026-05-04 18:39 | 48.27171 | 18.42725 | 29709 ft | 414 kts | 162° |
| 2026-05-04 18:39 | 48.24450 | 18.44075 | 29245 ft | 409 kts | 162° |
| 2026-05-04 18:39 | 48.21762 | 18.45406 | 28786 ft | 405 kts | 163° |
| 2026-05-04 18:40 | 48.19136 | 18.46706 | 28333 ft | 401 kts | 162° |
| 2026-05-04 18:40 | 48.16468 | 18.48027 | 27884 ft | 397 kts | 162° |
| 2026-05-04 18:40 | 48.13892 | 18.49307 | 27444 ft | 394 kts | 162° |
| 2026-05-04 18:40 | 48.11301 | 18.50593 | 26999 ft | 391 kts | 163° |
| 2026-05-04 18:41 | 48.08730 | 18.51862 | 26557 ft | 388 kts | 163° |
| 2026-05-04 18:41 | 48.06177 | 18.53122 | 26106 ft | 385 kts | 163° |
| 2026-05-04 18:41 | 48.03644 | 18.54369 | 25652 ft | 383 kts | 163° |
| 2026-05-04 18:41 | 48.01170 | 18.55842 | 25191 ft | 382 kts | 152° |
| 2026-05-04 18:42 | 47.98986 | 18.58070 | 24730 ft | 381 kts | 139° |
| 2026-05-04 18:42 | 47.97205 | 18.60985 | 24266 ft | 380 kts | 125° |
| 2026-05-04 18:42 | 47.95915 | 18.64425 | 23793 ft | 380 kts | 112° |
| 2026-05-04 18:42 | 47.95054 | 18.68141 | 23257 ft | 379 kts | 108° |
| 2026-05-04 18:43 | 47.94229 | 18.71870 | 22774 ft | 376 kts | 109° |
| 2026-05-04 18:43 | 47.93404 | 18.75563 | 22303 ft | 374 kts | 109° |
| 2026-05-04 18:43 | 47.92582 | 18.79219 | 21841 ft | 371 kts | 109° |
| 2026-05-04 18:43 | 47.91761 | 18.82855 | 21375 ft | 369 kts | 109° |
| 2026-05-04 18:44 | 47.90942 | 18.86473 | 20919 ft | 367 kts | 109° |
| 2026-05-04 18:44 | 47.90676 | 18.87644 | 20770 ft | 367 kts | 109° |
| 2026-05-04 18:44 | 47.89588 | 18.92443 | 20166 ft | 364 kts | 109° |
| 2026-05-04 18:44 | 47.88443 | 18.97124 | 19564 ft | 361 kts | 117° |
| 2026-05-04 18:45 | 47.87610 | 18.99313 | 19260 ft | 359 kts | 125° |
| 2026-05-04 18:45 | 47.86020 | 19.02165 | 18830 ft | 357 kts | 134° |
| 2026-05-04 18:45 | 47.84332 | 19.04858 | 18394 ft | 356 kts | 134° |
| 2026-05-04 18:45 | 47.82106 | 19.08427 | 17776 ft | 353 kts | 134° |
| 2026-05-04 18:46 | 47.80980 | 19.10232 | 17493 ft | 351 kts | 134° |
| 2026-05-04 18:46 | 47.79320 | 19.12884 | 17079 ft | 349 kts | 134° |
| 2026-05-04 18:46 | 47.77672 | 19.15514 | 16659 ft | 346 kts | 134° |
| 2026-05-04 18:46 | 47.76037 | 19.18124 | 16250 ft | 344 kts | 134° |
| 2026-05-04 18:47 | 47.74427 | 19.20748 | 15845 ft | 342 kts | 133° |
| 2026-05-04 18:47 | 47.72853 | 19.23380 | 15444 ft | 340 kts | 132° |
| 2026-05-04 18:47 | 47.71315 | 19.25977 | 15056 ft | 338 kts | 132° |
| 2026-05-04 18:47 | 47.69764 | 19.28591 | 14660 ft | 337 kts | 133° |
| 2026-05-04 18:48 | 47.68215 | 19.31183 | 14265 ft | 335 kts | 133° |
| 2026-05-04 18:48 | 47.66664 | 19.33758 | 13834 ft | 334 kts | 133° |
| 2026-05-04 18:48 | 47.65105 | 19.36303 | 13424 ft | 332 kts | 134° |
| 2026-05-04 18:48 | 47.63447 | 19.38655 | 12953 ft | 328 kts | 149° |
| 2026-05-04 18:49 | 47.61368 | 19.39775 | 12808 ft | 313 kts | 175° |
| 2026-05-04 18:49 | 47.59265 | 19.39429 | 12564 ft | 300 kts | 201° |
| 2026-05-04 18:49 | 47.57523 | 19.37832 | 11941 ft | 294 kts | 222° |
| 2026-05-04 18:49 | 47.56024 | 19.35803 | 11449 ft | 289 kts | 223° |
| 2026-05-04 18:50 | 47.54658 | 19.33692 | 11320 ft | 279 kts | 237° |
| 2026-05-04 18:50 | 47.54049 | 19.31055 | 11187 ft | 266 kts | 266° |
| 2026-05-04 18:50 | 47.54370 | 19.28436 | 10934 ft | 260 kts | 295° |
| 2026-05-04 18:50 | 47.55447 | 19.26303 | 10651 ft | 260 kts | 310° |
| 2026-05-04 18:51 | 47.56672 | 19.24318 | 10334 ft | 260 kts | 310° |
| 2026-05-04 18:51 | 47.57892 | 19.22353 | 10026 ft | 259 kts | 310° |
| 2026-05-04 18:51 | 47.59110 | 19.20389 | 9694 ft | 258 kts | 310° |
| 2026-05-04 18:51 | 47.60305 | 19.18458 | 9362 ft | 256 kts | 310° |
| 2026-05-04 18:52 | 47.61503 | 19.16517 | 9020 ft | 255 kts | 310° |
| 2026-05-04 18:52 | 47.62694 | 19.14581 | 8684 ft | 253 kts | 310° |
| 2026-05-04 18:52 | 47.63878 | 19.12654 | 8345 ft | 252 kts | 310° |
| 2026-05-04 18:52 | 47.65053 | 19.10743 | 8001 ft | 250 kts | 310° |
| 2026-05-04 18:53 | 47.66227 | 19.08836 | 7645 ft | 249 kts | 310° |
| 2026-05-04 18:53 | 47.67391 | 19.06942 | 7310 ft | 248 kts | 310° |
| 2026-05-04 18:53 | 47.68617 | 19.05154 | 6981 ft | 247 kts | 314° |
| 2026-05-04 18:53 | 47.69609 | 19.03138 | 6649 ft | 240 kts | 288° |
| 2026-05-04 18:54 | 47.69763 | 19.00731 | 6291 ft | 234 kts | 256° |
| 2026-05-04 18:54 | 47.69059 | 18.98601 | 5886 ft | 231 kts | 230° |
| 2026-05-04 18:54 | 47.68004 | 18.96796 | 5534 ft | 230 kts | 226° |
| 2026-05-04 18:54 | 47.66922 | 18.95057 | 5230 ft | 228 kts | 226° |
| 2026-05-04 18:55 | 47.65842 | 18.93355 | 4921 ft | 225 kts | 221° |
| 2026-05-04 18:55 | 47.62965 | 18.92258 | 4282 ft | 221 kts | 176° |
| 2026-05-04 18:55 | 47.61565 | 18.93092 | 4025 ft | 221 kts | 137° |
| 2026-05-04 18:56 | 47.60866 | 18.95151 | 4017 ft | 234 kts | 107° |
| 2026-05-04 18:56 | 47.60324 | 18.97410 | 3999 ft | 230 kts | 130° |
| 2026-05-04 18:56 | 47.59168 | 18.98996 | 4011 ft | 227 kts | 143° |
| 2026-05-04 18:56 | 47.58034 | 19.00645 | 4012 ft | 229 kts | 136° |
| 2026-05-04 18:57 | 47.56975 | 19.02378 | 3889 ft | 230 kts | 135° |
| 2026-05-04 18:57 | 47.55908 | 19.04132 | 3629 ft | 229 kts | 136° |
| 2026-05-04 18:57 | 47.54827 | 19.05897 | 3336 ft | 228 kts | 136° |
| 2026-05-04 18:57 | 47.53773 | 19.07616 | 3031 ft | 221 kts | 136° |
| 2026-05-04 18:58 | 47.52776 | 19.09239 | 2752 ft | 211 kts | 136° |
| 2026-05-04 18:58 | 47.51815 | 19.10804 | 2489 ft | 201 kts | 136° |
| 2026-05-04 18:58 | 47.50906 | 19.12283 | 2257 ft | 188 kts | 136° |
| 2026-05-04 18:58 | 47.50053 | 19.13669 | 1990 ft | 176 kts | 136° |
| 2026-05-04 18:59 | 47.49264 | 19.14952 | 1751 ft | 161 kts | 137° |
| 2026-05-04 18:59 | 47.48535 | 19.16135 | 1553 ft | 150 kts | 136° |
| 2026-05-04 18:59 | 47.47859 | 19.17231 | 1372 ft | 141 kts | 135° |
| 2026-05-04 18:59 | 47.47198 | 19.18302 | 1168 ft | 141 kts | 134° |
| 2026-05-04 19:00 | 47.46543 | 19.19363 | 989 ft | 139 kts | 134° |
| 2026-05-04 19:00 | 47.45891 | 19.20419 | 798 ft | 139 kts | 133° |
| 2026-05-04 19:00 | 47.45240 | 19.21473 | 613 ft | 138 kts | 133° |
| 2026-05-04 19:00 | 47.44597 | 19.22520 | 457 ft | 136 kts | 134° |
| 2026-05-04 19:01 | 47.44061 | 19.23385 | 455 ft | 83 kts | 131° |
| 2026-05-04 19:01 | 47.43791 | 19.23818 | 455 ft | 41 kts | 132° |
| 2026-05-04 19:01 | 47.43688 | 19.24152 | 453 ft | 35 kts | 101° |
| 2026-05-04 19:01 | 47.43632 | 19.24439 | 457 ft | 20 kts | 114° |
| 2026-05-04 19:02 | 47.43623 | 19.24469 | 457 ft | 0 kts | 114° |
| 2026-05-04 19:03 | 47.43618 | 19.24484 | 457 ft | 6 kts | 117° |
| 2026-05-04 19:03 | 47.43577 | 19.24572 | 456 ft | 13 kts | 128° |
| 2026-05-04 19:03 | 47.43516 | 19.24674 | 457 ft | 14 kts | 133° |
| 2026-05-04 19:04 | 47.43445 | 19.24787 | 457 ft | 16 kts | 132° |
| 2026-05-04 19:04 | 47.43365 | 19.24916 | 457 ft | 17 kts | 133° |
| 2026-05-04 19:04 | 47.43285 | 19.25045 | 457 ft | 18 kts | 132° |
| 2026-05-04 19:04 | 47.43235 | 19.25210 | 457 ft | 19 kts | 81° |
| 2026-05-04 19:05 | 47.43320 | 19.25357 | 457 ft | 20 kts | 42° |
| 2026-05-04 19:05 | 47.43420 | 19.25490 | 457 ft | 17 kts | 43° |
| 2026-05-04 19:05 | 47.43505 | 19.25603 | 457 ft | 15 kts | 40° |
| 2026-05-04 19:05 | 47.43541 | 19.25712 | 457 ft | 12 kts | 124° |
| 2026-05-04 19:06 | 47.43492 | 19.25805 | 457 ft | 11 kts | 121° |
| 2026-05-04 19:06 | 47.43450 | 19.25889 | 457 ft | 10 kts | 132° |
| 2026-05-04 19:06 | 47.43423 | 19.25972 | 457 ft | 8 kts | 70° |
| 2026-05-04 19:06 | 47.43459 | 19.26028 | 457 ft | 7 kts | 48° |
| 2026-05-04 19:07 | 47.43449 | 19.26073 | 457 ft | 4 kts | 131° |
| 2026-05-04 19:07 | 47.43430 | 19.26105 | 457 ft | 3 kts | 133° |
| 2026-05-04 19:07 | 47.43416 | 19.26127 | 457 ft | 2 kts | 133° |
| 2026-05-04 19:07 | 47.43412 | 19.26133 | 457 ft | 0 kts | 133° |